Axton, VA

5:07 PM EDT on August 23, 2014 (GMT -0400)
KVAAXTON2 | Change Station
CLOSE
Current Station
Personal Weather Station
Location: Axton, VA
Elevation: 930 ft
Nearby Weather Stations

Elev 930 ft 36.66 °N, 79.68 °W | Updated 3 seconds ago

Scattered Clouds
Scattered Clouds
84.0 °F
Feels Like 83 °F
N
0.0
Wind Variable Wind from North
Gusts 0.0 mph

Today
High -- | Low -- °F
--% Chance of Precip.
Yesterday
High -- | Low -- °F
Precip. -- in
6:42 AM 7:59 PM
Waning Crescent, 3% visible
Pressure 29.94 in
Visibility 10.0 miles
Clouds Scattered Clouds 3000 ft
Scattered Clouds 3900 ft
Heat Index 83 °F
Dew Point 56 °F
Humidity 39%
Rainfall 0.04 in
Snow Depth Not available.
UV 3 out of 12
Pollen 8.60 out of 12
Air Quality Not available.
Flu Activity Not available.
METAR KSIF 232055Z AUTO 00000KT 10SM SCT030 SCT039 29/23 A2994 RMK AO2 T02850231

More Conditions Fewer Conditions

Pressure 29.94 in
Visibility 10.0 miles
Clouds Scattered Clouds 3000 ft
Scattered Clouds 3900 ft
Heat Index 83 °F
Dew Point 56 °F
Humidity 39%
Rainfall 0.04 in
Snow Depth Not available.
UV 3 out of 12
Pollen 8.60 out of 12
Air Quality Not available.
Flu Activity Not available.
METAR KSIF 232055Z AUTO 00000KT 10SM SCT030 SCT039 29/23 A2994 RMK AO2 T02850231

More Conditions Fewer Conditions

10-Day Weather Forecast

Almanac

Astronomy

Aug. 23, 2014 Rise Set
Actual Time 6:42 AM EDT 7:59 PM EDT
Civil Twilight 6:15 AM EDT 8:26 PM EDT
Nautical Twilight 5:43 AM EDT 8:58 PM EDT
Astronomical Twilight 5:09 AM EDT 9:32 PM EDT
Moon 4:58 AM EDT 6:42 PM EDT
Length of Visible Light 14h 10m
Length of Day
13h 16m
Tomorrow will be 2m 8s shorter.
Waning Crescent, 3% of the Moon is Illuminated
Today
Waning Crescent
Aug 25
New
Sep 2
First Quarter
Sep 8
Full
Sep 15
Last Quarter

Today's Extremes

State Highs State Lows

Community

WunderPhotos

Upload Photos

1,746,622 photos uploaded!

WunderBlogs® & News

By Dr. Jeff Masters
Director of Meteorology, Weather Underground
By Kari Strenfel
Meteorologist, Weather Underground
By Christopher C. Burt
Weather Historian, Weather Underground
August 23, 2014
August 23, 2014
August 23, 2014

Nearby

Snow Depth

Station Depth Elevation
No new snow has been reported.

Earthquake Activity

City Distance Mag. Time & Date
No recent earthquake activity has been reported nearby.
Minimum magnitude displayed is 2.5.

Coastal Water Temperatures

Place Temperature
No Stations Reporting

Nearby Weather Stations